createdAt,value
2022-08-26T00:00:08.258Z,13.63
2022-08-26T00:02:40.620Z,14.07
2022-08-26T00:05:09.532Z,12.63
2022-08-26T00:07:37.190Z,13.30
2022-08-26T00:10:07.670Z,12.17
2022-08-26T00:12:37.379Z,12.90
2022-08-26T00:15:07.421Z,13.53
2022-08-26T00:17:35.465Z,14.07
2022-08-26T00:20:04.037Z,14.20
2022-08-26T00:22:31.800Z,13.30
2022-08-26T00:24:59.502Z,14.17
2022-08-26T00:27:28.522Z,13.33
2022-08-26T00:29:56.236Z,13.93
2022-08-26T00:32:24.502Z,12.87
2022-08-26T00:34:53.835Z,12.70
2022-08-26T00:37:21.891Z,14.10
2022-08-26T00:39:50.197Z,13.80
2022-08-26T00:42:17.922Z,13.43
2022-08-26T00:44:47.126Z,13.50
2022-08-26T00:47:23.919Z,13.23
2022-08-26T00:49:52.518Z,14.03
2022-08-26T00:52:23.075Z,13.10
2022-08-26T00:54:54.439Z,13.03
2022-08-26T00:57:23.923Z,14.40
2022-08-26T00:59:57.807Z,14.03
2022-08-26T01:02:26.268Z,12.03
2022-08-26T01:04:59.904Z,11.73
2022-08-26T01:07:30.167Z,12.53
2022-08-26T01:10:01.249Z,14.10
2022-08-26T01:12:32.803Z,12.63
2022-08-26T01:15:03.134Z,13.47
2022-08-26T01:17:33.836Z,13.90
2022-08-26T01:20:07.607Z,14.13
2022-08-26T01:22:47.077Z,13.43
2022-08-26T01:25:15.824Z,12.67
2022-08-26T01:27:44.417Z,12.37
2022-08-26T01:30:17.736Z,13.53
2022-08-26T01:32:46.650Z,12.50
2022-08-26T01:35:14.486Z,13.50
2022-08-26T01:37:44.299Z,13.80
2022-08-26T01:40:17.541Z,12.33
2022-08-26T01:42:46.726Z,12.77
2022-08-26T01:45:19.468Z,13.53
2022-08-26T01:47:48.485Z,13.10
2022-08-26T01:50:28.221Z,13.63
2022-08-26T01:53:03.279Z,11.90
2022-08-26T01:55:34.202Z,13.60
2022-08-26T01:58:05.789Z,13.63
2022-08-26T02:00:34.833Z,12.80
2022-08-26T02:03:17.596Z,13.47
2022-08-26T02:05:48.761Z,11.10
2022-08-26T02:08:24.874Z,13.47
2022-08-26T02:10:54.797Z,12.87
2022-08-26T02:13:23.683Z,13.23
2022-08-26T02:15:52.771Z,13.10
2022-08-26T02:18:20.635Z,14.00
2022-08-26T02:20:53.751Z,13.87
2022-08-26T02:23:23.947Z,15.50
2022-08-26T02:25:57.883Z,15.07
2022-08-26T02:28:29.503Z,14.80
2022-08-26T02:30:57.413Z,14.97
2022-08-26T02:33:25.543Z,14.50
2022-08-26T02:35:53.284Z,13.93
2022-08-26T02:38:23.328Z,14.77
2022-08-26T02:40:51.029Z,14.30
2022-08-26T02:43:18.734Z,14.53
2022-08-26T02:45:51.847Z,14.67
2022-08-26T02:48:21.453Z,14.90
2022-08-26T02:50:49.532Z,13.67
2022-08-26T02:53:20.046Z,14.53
2022-08-26T02:55:54.062Z,13.97
2022-08-26T02:58:22.168Z,14.77
2022-08-26T03:00:52.512Z,13.40
2022-08-26T03:03:23.585Z,13.33
2022-08-26T03:05:51.540Z,14.50
2022-08-26T03:08:19.252Z,14.40
2022-08-26T03:10:48.114Z,13.77
2022-08-26T03:13:18.552Z,16.10
2022-08-26T03:15:47.683Z,14.37
2022-08-26T03:18:16.023Z,13.87
2022-08-26T03:20:44.019Z,14.57
2022-08-26T03:23:12.417Z,15.50
2022-08-26T03:25:40.128Z,14.17
2022-08-26T03:28:07.856Z,14.63
2022-08-26T03:30:45.353Z,13.80
2022-08-26T03:33:14.167Z,13.53
2022-08-26T03:35:45.139Z,14.50
2022-08-26T03:38:12.942Z,13.87
2022-08-26T03:40:40.953Z,14.60
2022-08-26T03:43:09.574Z,13.77
2022-08-26T03:45:39.474Z,14.10
2022-08-26T03:48:09.047Z,14.33
2022-08-26T03:50:36.986Z,14.40
2022-08-26T03:53:07.538Z,15.10
2022-08-26T03:55:41.199Z,14.07
2022-08-26T03:58:08.836Z,15.00
2022-08-26T04:00:36.933Z,15.17
2022-08-26T04:03:06.082Z,15.67
2022-08-26T04:05:38.453Z,15.27
2022-08-26T04:08:06.448Z,15.90
2022-08-26T04:10:34.053Z,15.03
2022-08-26T04:13:02.440Z,15.63
2022-08-26T04:15:30.360Z,16.40
2022-08-26T04:17:58.249Z,14.53
2022-08-26T04:20:27.976Z,16.60
2022-08-26T04:22:55.816Z,17.80
2022-08-26T04:25:24.331Z,16.17
2022-08-26T04:27:52.282Z,15.90
2022-08-26T04:30:21.198Z,16.40
2022-08-26T04:32:49.555Z,16.30
2022-08-26T04:35:17.441Z,16.67
2022-08-26T04:37:46.552Z,15.77
2022-08-26T04:40:14.658Z,16.77
2022-08-26T04:42:42.587Z,16.10
2022-08-26T04:45:11.899Z,15.83
2022-08-26T04:47:39.584Z,15.90
2022-08-26T04:50:09.030Z,16.63
2022-08-26T04:52:38.694Z,15.27
2022-08-26T04:55:08.753Z,16.10
2022-08-26T04:57:36.608Z,16.20
2022-08-26T05:00:06.029Z,14.70
2022-08-26T05:02:34.223Z,16.50
2022-08-26T05:05:01.966Z,14.77
2022-08-26T05:07:30.201Z,15.17
2022-08-26T05:10:00.188Z,13.03
2022-08-26T05:12:29.329Z,15.07
2022-08-26T05:14:57.270Z,14.17
2022-08-26T05:17:25.741Z,13.00
2022-08-26T05:19:53.598Z,14.40
2022-08-26T05:22:21.222Z,15.67
2022-08-26T05:24:49.289Z,14.87
2022-08-26T05:27:16.925Z,14.57
2022-08-26T05:29:46.736Z,15.37
2022-08-26T05:32:22.039Z,14.73
2022-08-26T05:34:49.709Z,15.83
2022-08-26T05:37:21.074Z,15.67
2022-08-26T05:39:51.015Z,15.97
2022-08-26T05:42:19.893Z,16.23
2022-08-26T05:44:53.984Z,16.37
2022-08-26T05:47:24.165Z,16.30
2022-08-26T05:49:52.027Z,16.07
2022-08-26T05:52:19.946Z,14.73
2022-08-26T05:54:47.845Z,16.40
2022-08-26T05:57:15.667Z,15.40
2022-08-26T05:59:44.054Z,17.07
2022-08-26T06:02:14.982Z,17.10
2022-08-26T06:04:43.329Z,16.40
2022-08-26T06:07:11.791Z,16.40
2022-08-26T06:09:41.459Z,16.17
2022-08-26T06:12:09.220Z,15.30
2022-08-26T06:14:36.984Z,18.30
2022-08-26T06:17:04.644Z,17.37
2022-08-26T06:19:34.419Z,17.70
2022-08-26T06:22:23.564Z,16.47
2022-08-26T06:25:08.941Z,15.40
2022-08-26T06:27:37.734Z,16.47
2022-08-26T06:30:06.428Z,15.60
2022-08-26T06:32:34.062Z,18.57
2022-08-26T06:35:03.109Z,16.40
2022-08-26T06:37:30.748Z,15.20
2022-08-26T06:39:58.657Z,15.93
2022-08-26T06:42:26.368Z,17.70
2022-08-26T06:44:54.274Z,17.47
2022-08-26T06:47:22.143Z,16.53
2022-08-26T06:49:50.344Z,17.40
2022-08-26T06:52:24.578Z,15.67
2022-08-26T06:54:52.372Z,16.17
2022-08-26T06:57:20.761Z,16.63
2022-08-26T06:59:51.267Z,15.60
2022-08-26T07:02:19.532Z,17.07
2022-08-26T07:04:48.474Z,15.73
2022-08-26T07:07:21.652Z,15.00
2022-08-26T07:09:52.620Z,13.70
2022-08-26T07:12:20.527Z,15.13
2022-08-26T07:14:48.415Z,15.07
2022-08-26T07:17:16.081Z,14.87
2022-08-26T07:19:44.133Z,13.77
2022-08-26T07:22:11.939Z,13.97
2022-08-26T07:24:42.356Z,14.13
2022-08-26T07:27:13.018Z,12.77
2022-08-26T07:29:42.309Z,12.93
2022-08-26T07:32:11.538Z,11.97
2022-08-26T07:34:39.678Z,13.30
2022-08-26T07:37:09.545Z,11.53
2022-08-26T07:39:37.613Z,10.97
2022-08-26T07:42:10.679Z,9.90
2022-08-26T07:44:39.632Z,9.93
2022-08-26T07:47:24.269Z,8.90
2022-08-26T07:49:55.274Z,10.77
2022-08-26T07:52:26.699Z,10.73
2022-08-26T07:54:55.927Z,8.80
2022-08-26T07:57:25.336Z,7.60
2022-08-26T07:59:54.951Z,8.87
2022-08-26T08:02:25.080Z,8.77
2022-08-26T08:04:54.483Z,7.70
2022-08-26T08:07:38.500Z,9.20
2022-08-26T08:10:13.402Z,8.10
2022-08-26T08:12:43.822Z,10.17
2022-08-26T08:15:13.788Z,9.77
2022-08-26T08:17:42.820Z,8.73
2022-08-26T08:20:12.411Z,8.30
2022-08-26T08:22:40.285Z,8.60
2022-08-26T08:25:10.532Z,7.67
2022-08-26T08:27:42.527Z,8.57
2022-08-26T08:30:13.779Z,6.80
2022-08-26T08:32:43.463Z,6.67
2022-08-26T08:35:12.552Z,7.73
2022-08-26T08:37:41.005Z,6.33
2022-08-26T08:40:10.051Z,7.30
2022-08-26T08:42:45.331Z,5.60
2022-08-26T08:45:21.097Z,6.47
2022-08-26T08:47:54.034Z,6.97
2022-08-26T08:50:27.308Z,7.17
2022-08-26T08:53:08.825Z,7.00
2022-08-26T08:55:45.516Z,8.10
2022-08-26T08:58:19.213Z,7.17
2022-08-26T09:00:52.370Z,7.03
2022-08-26T09:03:38.630Z,8.07
2022-08-26T09:06:16.890Z,6.67
2022-08-26T09:08:50.027Z,8.20
2022-08-26T09:11:19.553Z,8.03
2022-08-26T09:13:50.771Z,8.10
2022-08-26T09:16:23.171Z,8.53
2022-08-26T09:19:04.849Z,7.77
2022-08-26T09:21:33.686Z,7.93
2022-08-26T09:24:02.038Z,7.00
2022-08-26T09:26:42.329Z,7.73
2022-08-26T09:31:51.049Z,6.97
2022-08-26T09:34:21.906Z,7.63
2022-08-26T09:36:51.308Z,7.27
2022-08-26T09:39:33.422Z,7.77
2022-08-26T09:42:10.228Z,7.17
2022-08-26T09:44:54.366Z,7.20
2022-08-26T09:47:28.505Z,7.50
2022-08-26T09:50:04.236Z,7.77
2022-08-26T09:52:37.065Z,8.40
2022-08-26T09:55:11.271Z,7.67
2022-08-26T09:57:47.200Z,8.10
2022-08-26T10:00:27.645Z,7.20
2022-08-26T10:02:58.240Z,6.27
2022-08-26T10:05:44.899Z,6.03
2022-08-26T10:08:23.890Z,6.70
2022-08-26T10:10:53.144Z,6.33
2022-08-26T10:13:26.770Z,7.97
2022-08-26T10:16:05.683Z,7.20
2022-08-26T10:18:39.832Z,8.23
2022-08-26T10:21:11.948Z,7.33
2022-08-26T10:23:43.374Z,7.43
2022-08-26T10:26:17.297Z,7.60
2022-08-26T10:28:52.380Z,8.03
2022-08-26T10:31:28.438Z,6.83
2022-08-26T10:34:00.203Z,7.30
2022-08-26T10:37:13.948Z,9.80
2022-08-26T10:39:43.810Z,7.07
2022-08-26T10:42:22.471Z,6.90
2022-08-26T10:44:54.022Z,6.97
2022-08-26T10:47:31.662Z,7.33
2022-08-26T10:50:02.986Z,7.40
2022-08-26T10:52:45.722Z,7.53
2022-08-26T10:55:19.612Z,7.40
2022-08-26T10:58:06.594Z,6.60
2022-08-26T11:01:02.234Z,7.33
2022-08-26T11:03:42.370Z,6.20
2022-08-26T11:06:25.631Z,7.20
2022-08-26T11:08:54.774Z,6.03
2022-08-26T11:11:46.907Z,6.20
2022-08-26T11:14:46.226Z,7.17
2022-08-26T11:17:55.296Z,5.97
2022-08-26T11:20:35.159Z,6.80
2022-08-26T11:23:36.200Z,6.70
2022-08-26T11:26:43.257Z,6.00
2022-08-26T11:29:12.991Z,6.20
2022-08-26T11:31:56.692Z,5.27
2022-08-26T11:34:51.841Z,4.93
2022-08-26T11:39:57.150Z,4.50
2022-08-26T11:42:36.002Z,5.23
2022-08-26T11:45:14.338Z,5.23
2022-08-26T11:47:42.158Z,4.67
2022-08-26T11:50:13.559Z,4.83
2022-08-26T11:52:41.260Z,5.50
2022-08-26T11:55:11.763Z,5.73
2022-08-26T11:57:46.361Z,6.03
2022-08-26T12:00:22.277Z,6.30
2022-08-26T12:02:51.298Z,6.20
2022-08-26T12:05:27.216Z,5.83
2022-08-26T12:08:02.335Z,6.03
2022-08-26T12:10:33.553Z,6.07
2022-08-26T12:13:04.719Z,5.63
2022-08-26T12:15:35.453Z,6.00
2022-08-26T12:18:18.482Z,5.50
2022-08-26T12:20:56.695Z,5.40
2022-08-26T12:23:26.854Z,5.87
2022-08-26T12:26:05.260Z,6.10
2022-08-26T12:28:35.412Z,5.67
2022-08-26T12:31:05.592Z,6.57
2022-08-26T12:33:35.905Z,5.60
2022-08-26T12:36:05.171Z,5.83
2022-08-26T12:38:34.981Z,6.10
2022-08-26T12:41:02.761Z,6.10
2022-08-26T12:43:43.405Z,6.00
2022-08-26T12:46:13.587Z,5.70
2022-08-26T12:48:44.103Z,5.67
2022-08-26T12:51:27.862Z,6.27
2022-08-26T12:53:59.049Z,5.83
2022-08-26T12:56:30.906Z,5.63
2022-08-26T12:59:06.533Z,6.33
2022-08-26T13:01:40.453Z,6.33
2022-08-26T13:04:08.366Z,6.20
2022-08-26T13:06:36.057Z,5.33
2022-08-26T13:09:06.512Z,6.10
2022-08-26T13:11:36.394Z,6.10
2022-08-26T13:14:07.438Z,5.23
2022-08-26T13:16:36.357Z,6.03
2022-08-26T13:19:10.248Z,5.40
2022-08-26T13:21:42.910Z,5.87
2022-08-26T13:24:13.206Z,4.97
2022-08-26T13:26:41.660Z,4.20
2022-08-26T13:29:11.227Z,4.63
2022-08-26T13:31:41.921Z,3.80
2022-08-26T13:34:11.713Z,4.47
2022-08-26T13:36:39.813Z,5.23
2022-08-26T13:39:07.787Z,4.27
2022-08-26T13:41:36.240Z,4.27
2022-08-26T13:44:04.470Z,4.33
2022-08-26T13:46:33.902Z,3.83
2022-08-26T13:49:02.104Z,3.70
2022-08-26T13:51:31.312Z,4.17
2022-08-26T13:53:59.506Z,4.53
2022-08-26T13:56:29.482Z,4.47
2022-08-26T13:58:57.745Z,4.07
2022-08-26T14:01:25.778Z,4.60
2022-08-26T14:03:54.982Z,4.80
2022-08-26T14:06:23.002Z,4.30
2022-08-26T14:08:50.819Z,4.50
2022-08-26T14:11:20.046Z,4.63
2022-08-26T14:13:47.750Z,4.67
2022-08-26T14:16:22.362Z,4.53
2022-08-26T14:18:50.997Z,3.80
2022-08-26T14:21:20.562Z,4.53
2022-08-26T14:23:48.313Z,4.30
2022-08-26T14:26:21.432Z,4.60
2022-08-26T14:28:57.456Z,5.10
2022-08-26T14:31:26.839Z,4.27
2022-08-26T14:33:54.783Z,3.77
2022-08-26T14:36:31.329Z,4.90
2022-08-26T14:39:02.266Z,4.37
2022-08-26T14:41:30.823Z,4.17
2022-08-26T14:44:01.600Z,5.03
2022-08-26T14:46:32.430Z,5.00
2022-08-26T14:49:05.235Z,4.87
2022-08-26T14:51:36.395Z,4.63
2022-08-26T14:54:13.095Z,5.17
2022-08-26T14:56:44.415Z,5.40
2022-08-26T14:59:12.818Z,6.47
2022-08-26T15:01:40.878Z,4.97
2022-08-26T15:04:08.614Z,5.93
2022-08-26T15:06:38.142Z,6.70
2022-08-26T15:09:06.837Z,6.80
2022-08-26T15:11:34.515Z,7.57
2022-08-26T15:14:02.570Z,6.93
2022-08-26T15:16:30.694Z,6.00
2022-08-26T15:18:58.485Z,6.43
2022-08-26T15:21:27.008Z,6.47
2022-08-26T15:23:56.006Z,6.07
2022-08-26T15:26:24.220Z,6.77
2022-08-26T15:28:53.006Z,7.00
2022-08-26T15:31:26.590Z,6.17
2022-08-26T15:33:54.224Z,6.10
2022-08-26T15:36:21.902Z,6.70
2022-08-26T15:38:49.536Z,6.20
2022-08-26T15:41:18.553Z,6.60
2022-08-26T15:43:46.218Z,6.50
2022-08-26T15:46:14.624Z,5.77
2022-08-26T15:48:42.617Z,6.77
2022-08-26T15:51:21.616Z,6.00
2022-08-26T15:53:50.473Z,6.57
2022-08-26T15:56:19.949Z,6.40
2022-08-26T15:58:47.648Z,5.80
2022-08-26T16:01:23.991Z,7.10
2022-08-26T16:03:55.796Z,6.30
2022-08-26T16:06:25.959Z,6.00
2022-08-26T16:08:54.241Z,6.77
2022-08-26T16:11:23.558Z,6.67
2022-08-26T16:13:51.484Z,6.37
2022-08-26T16:16:20.352Z,5.67
2022-08-26T16:18:48.427Z,6.30
2022-08-26T16:21:17.282Z,6.60
2022-08-26T16:23:45.568Z,5.97
2022-08-26T16:26:16.312Z,5.83
2022-08-26T16:28:45.508Z,7.10
2022-08-26T16:31:14.141Z,5.80
2022-08-26T16:33:41.922Z,5.47
2022-08-26T16:36:10.818Z,5.90
2022-08-26T16:38:39.619Z,6.07
2022-08-26T16:41:08.682Z,5.63
2022-08-26T16:43:36.787Z,6.80
2022-08-26T16:46:08.116Z,7.30
2022-08-26T16:48:36.386Z,8.10
2022-08-26T16:51:04.219Z,7.50
2022-08-26T16:53:33.288Z,7.10
2022-08-26T16:56:00.987Z,7.27
2022-08-26T16:58:28.732Z,8.67
2022-08-26T17:00:57.320Z,8.50
2022-08-26T17:03:27.518Z,8.30
2022-08-26T17:05:55.211Z,8.40
2022-08-26T17:08:27.724Z,8.50
2022-08-26T17:10:56.819Z,8.30
2022-08-26T17:13:34.701Z,6.93
2022-08-26T17:16:05.306Z,7.43
2022-08-26T17:18:35.166Z,6.60
2022-08-26T17:21:04.778Z,7.10
2022-08-26T17:23:33.248Z,6.00
2022-08-26T17:26:01.011Z,7.07
2022-08-26T17:28:28.727Z,7.50
2022-08-26T17:30:57.254Z,7.33
2022-08-26T17:33:25.355Z,7.13
2022-08-26T17:35:54.875Z,7.00
2022-08-26T17:38:23.207Z,7.33
2022-08-26T17:40:51.217Z,8.00
2022-08-26T17:43:19.781Z,8.20
2022-08-26T17:45:48.008Z,7.37
2022-08-26T17:48:16.081Z,7.57
2022-08-26T17:50:49.336Z,8.47
2022-08-26T17:53:19.452Z,8.13
2022-08-26T17:55:47.657Z,7.47
2022-08-26T17:58:16.204Z,7.10
2022-08-26T18:00:44.995Z,7.03
2022-08-26T18:03:13.158Z,7.60
2022-08-26T18:05:41.185Z,7.30
2022-08-26T18:08:09.328Z,7.10
2022-08-26T18:10:38.502Z,7.47
2022-08-26T18:13:06.592Z,7.20
2022-08-26T18:15:34.588Z,7.73
2022-08-26T18:18:02.319Z,7.50
2022-08-26T18:20:30.135Z,7.40
2022-08-26T18:22:57.895Z,6.77
2022-08-26T18:25:25.874Z,6.40
2022-08-26T18:27:54.977Z,6.93
2022-08-26T18:30:23.714Z,6.67
2022-08-26T18:32:52.886Z,7.27
2022-08-26T18:35:21.969Z,7.13
2022-08-26T18:37:49.824Z,7.10
2022-08-26T18:40:17.762Z,7.40
2022-08-26T18:42:45.722Z,7.90
2022-08-26T18:45:18.671Z,6.90
2022-08-26T18:47:46.398Z,6.67
2022-08-26T18:50:14.612Z,5.87
2022-08-26T18:52:42.316Z,4.90
2022-08-26T18:55:10.800Z,3.83
2022-08-26T18:57:38.493Z,3.20
2022-08-26T19:00:07.779Z,3.40
2022-08-26T19:02:36.951Z,3.77
2022-08-26T19:05:08.037Z,6.10
2022-08-26T19:07:39.636Z,5.33
2022-08-26T19:10:08.376Z,6.93
2022-08-26T19:12:36.337Z,5.20
2022-08-26T19:15:04.284Z,5.93
2022-08-26T19:17:32.022Z,4.70
2022-08-26T19:20:01.078Z,5.10
2022-08-26T19:22:28.948Z,3.40
2022-08-26T19:24:56.741Z,3.40
2022-08-26T19:27:24.536Z,2.87
2022-08-26T19:29:52.229Z,2.57
2022-08-26T19:32:24.129Z,2.93
2022-08-26T19:34:52.034Z,3.47
2022-08-26T19:37:21.804Z,3.57
2022-08-26T19:39:49.707Z,3.90
2022-08-26T19:42:18.047Z,3.80
2022-08-26T19:45:03.724Z,3.70
2022-08-26T19:47:31.443Z,3.20
2022-08-26T19:49:59.199Z,3.80
2022-08-26T19:52:30.050Z,4.10
2022-08-26T19:54:58.173Z,3.13
2022-08-26T19:57:25.935Z,3.47
2022-08-26T19:59:53.662Z,3.97
2022-08-26T20:02:21.446Z,5.43
2022-08-26T20:04:49.176Z,3.70
2022-08-26T20:07:18.859Z,4.80
2022-08-26T20:09:48.949Z,4.43
2022-08-26T20:12:17.345Z,4.10
2022-08-26T20:14:45.386Z,4.27
2022-08-26T20:17:13.204Z,4.00
2022-08-26T20:19:58.927Z,4.30
2022-08-26T20:22:26.662Z,4.10
2022-08-26T20:24:55.693Z,5.27
2022-08-26T20:27:37.912Z,4.43
2022-08-26T20:30:09.251Z,4.30
2022-08-26T20:32:38.379Z,5.10
2022-08-26T20:35:08.187Z,5.70
2022-08-26T20:37:35.951Z,4.10
2022-08-26T20:40:08.358Z,7.00
2022-08-26T20:42:36.166Z,6.83
2022-08-26T20:45:04.221Z,5.93
2022-08-26T20:47:31.978Z,5.77
2022-08-26T20:49:59.860Z,8.50
2022-08-26T20:52:27.886Z,8.57
2022-08-26T20:54:55.687Z,6.43
2022-08-26T20:57:24.792Z,5.47
2022-08-26T20:59:52.494Z,6.03
2022-08-26T21:02:20.276Z,6.60
2022-08-26T21:04:48.030Z,4.87
2022-08-26T21:07:15.747Z,5.93
2022-08-26T21:09:45.500Z,6.30
2022-08-26T21:12:13.569Z,4.70
2022-08-26T21:14:44.768Z,6.37
2022-08-26T21:17:15.499Z,5.50
2022-08-26T21:19:43.220Z,6.43
2022-08-26T21:22:12.317Z,6.67
2022-08-26T21:24:40.113Z,5.63
2022-08-26T21:27:07.995Z,5.50
2022-08-26T21:29:36.734Z,6.93
2022-08-26T21:32:06.439Z,4.83
2022-08-26T21:34:34.174Z,4.77
2022-08-26T21:37:02.044Z,5.10
2022-08-26T21:39:36.665Z,4.73
2022-08-26T21:42:07.703Z,5.40
2022-08-26T21:44:35.376Z,5.57
2022-08-26T21:47:03.443Z,4.70
2022-08-26T21:49:32.601Z,4.60
2022-08-26T21:52:01.595Z,5.17
2022-08-26T21:54:29.359Z,4.97
2022-08-26T21:56:57.243Z,5.37
2022-08-26T21:59:25.931Z,6.30
2022-08-26T22:01:54.511Z,7.00
2022-08-26T22:04:22.398Z,5.97
2022-08-26T22:06:54.279Z,6.50
2022-08-26T22:09:24.723Z,6.83
2022-08-26T22:11:53.381Z,6.80
2022-08-26T22:14:23.949Z,7.27
2022-08-26T22:16:54.894Z,7.53
2022-08-26T22:19:23.655Z,6.37
2022-08-26T22:21:55.888Z,6.20
2022-08-26T22:24:26.388Z,6.70
2022-08-26T22:26:54.974Z,6.53
2022-08-26T22:29:24.301Z,6.90
2022-08-26T22:31:52.456Z,8.17
2022-08-26T22:34:21.094Z,7.67
2022-08-26T22:36:49.995Z,8.17
2022-08-26T22:39:22.087Z,8.23
2022-08-26T22:41:50.123Z,8.77
2022-08-26T22:44:19.023Z,8.37
2022-08-26T22:46:48.228Z,8.57
2022-08-26T22:49:16.876Z,8.30
2022-08-26T22:51:45.253Z,8.10
2022-08-26T22:54:13.113Z,8.40
2022-08-26T22:56:42.629Z,8.50
2022-08-26T22:59:10.918Z,8.30
2022-08-26T23:01:40.759Z,8.77
2022-08-26T23:04:08.658Z,7.20
2022-08-26T23:06:40.428Z,9.40
2022-08-26T23:09:08.992Z,8.13
2022-08-26T23:11:38.566Z,8.80
2022-08-26T23:14:11.979Z,8.13
2022-08-26T23:16:41.745Z,8.60
2022-08-26T23:19:10.732Z,8.10
2022-08-26T23:21:38.564Z,8.90
2022-08-26T23:24:07.200Z,7.33
2022-08-26T23:26:35.414Z,8.80
2022-08-26T23:29:03.669Z,8.60
2022-08-26T23:31:33.310Z,8.33
2022-08-26T23:34:18.599Z,9.07
2022-08-26T23:36:47.234Z,9.07
2022-08-26T23:39:15.122Z,8.13
2022-08-26T23:41:43.247Z,8.50
2022-08-26T23:44:12.244Z,8.60
2022-08-26T23:46:41.303Z,7.97
2022-08-26T23:49:09.130Z,8.03
2022-08-26T23:51:54.367Z,7.70
2022-08-26T23:54:22.107Z,8.30
2022-08-26T23:56:50.469Z,7.57
2022-08-26T23:59:18.253Z,8.13
